Time;durP1;ratioP1;P1;durP2;ratioP2;P2;SDS_P1;SDS_P2;PMS_P1;PMS_P2;Temp;Humidity;BMP_temperature;BMP_pressure;BME280_temperature;BME280_humidity;BME280_pressure;Samples;Min_cycle;Max_cycle;Signal;HPM_P1;HPM_P2
2021/01/27 00:02:05;;;;;;;5.43;4.97;;;0.30;99.90;;;;;;5071739;28;20240;-65
2021/01/27 00:04:31;;;;;;;5.17;4.67;;;0.30;99.90;;;;;;5071866;28;20246;-64
2021/01/27 00:06:56;;;;;;;4.87;4.43;;;0.40;99.90;;;;;;5071904;28;20272;-64
2021/01/27 00:09:22;;;;;;;6.67;6.03;;;0.30;99.90;;;;;;5071825;28;20541;-64
2021/01/27 00:11:47;;;;;;;5.47;5.00;;;0.30;99.90;;;;;;5071402;28;20191;-64
2021/01/27 00:14:13;;;;;;;7.90;4.80;;;0.30;99.90;;;;;;5071761;28;20196;-64
2021/01/27 00:16:38;;;;;;;6.40;5.50;;;0.30;99.90;;;;;;5071740;28;20267;-64
2021/01/27 00:19:04;;;;;;;6.63;5.83;;;0.40;99.90;;;;;;5071605;28;20631;-64
2021/01/27 00:21:29;;;;;;;5.40;5.00;;;0.30;99.90;;;;;;5071309;28;20529;-64
2021/01/27 00:23:55;;;;;;;6.90;5.30;;;0.50;99.90;;;;;;5071761;28;20177;-64
2021/01/27 00:26:20;;;;;;;6.07;5.23;;;0.40;99.90;;;;;;5071718;28;20542;-64
2021/01/27 00:28:46;;;;;;;4.60;4.20;;;0.40;99.90;;;;;;5071568;28;20580;-64
2021/01/27 00:31:11;;;;;;;4.70;4.30;;;0.40;99.90;;;;;;5071150;28;20274;-64
2021/01/27 00:33:37;;;;;;;4.63;4.23;;;0.40;99.90;;;;;;5071856;28;20259;-64
2021/01/27 00:36:03;;;;;;;4.90;4.40;;;0.40;99.90;;;;;;5071599;28;20187;-64
2021/01/27 00:38:28;;;;;;;4.83;4.43;;;0.40;99.90;;;;;;5071411;28;20607;-64
2021/01/27 00:40:56;;;;;;;5.10;4.70;;;0.40;99.90;;;;;;5071099;28;20187;-64
2021/01/27 00:43:23;;;;;;;4.85;4.43;;;0.30;99.90;;;;;;5071477;28;20166;-64
2021/01/27 00:45:50;;;;;;;6.88;4.57;;;0.40;99.90;;;;;;5071459;28;20171;-64
2021/01/27 00:48:15;;;;;;;4.50;4.20;;;0.40;99.90;;;;;;5071527;28;20167;-63
2021/01/27 00:50:41;;;;;;;3.77;3.47;;;0.40;99.90;;;;;;5071042;28;20661;-64
2021/01/27 00:53:07;;;;;;;3.60;3.37;;;0.40;99.90;;;;;;5071421;28;20535;-65
2021/01/27 00:55:33;;;;;;;5.90;4.30;;;0.40;99.90;;;;;;5071389;28;20175;-64
2021/01/27 00:57:59;;;;;;;5.80;4.05;;;0.30;99.90;;;;;;5073464;28;20460;-64
2021/01/27 01:00:33;;;;;;;5.75;4.43;;;0.40;99.90;;;;;;5074675;28;20689;-64
2021/01/27 01:02:59;;;;;;;4.72;4.07;;;0.30;99.90;;;;;;5075084;28;20262;-64
2021/01/27 01:05:28;;;;;;;5.63;4.60;;;0.30;99.90;;;;;;5075067;28;20254;-64
2021/01/27 01:07:54;;;;;;;4.82;3.97;;;0.30;99.90;;;;;;5074940;28;20393;-64
2021/01/27 01:10:25;;;;;;;4.07;3.67;;;0.40;99.90;;;;;;5074615;28;20665;-64
2021/01/27 01:12:51;;;;;;;4.68;3.78;;;0.40;99.90;;;;;;5074872;28;20168;-64
2021/01/27 01:15:17;;;;;;;4.60;4.27;;;0.30;99.90;;;;;;5074926;28;20173;-64
2021/01/27 01:17:43;;;;;;;5.10;4.70;;;0.40;99.90;;;;;;5074733;28;20163;-64
2021/01/27 01:20:14;;;;;;;5.87;5.00;;;0.30;99.90;;;;;;5074351;28;20623;-64
2021/01/27 01:22:41;;;;;;;6.82;5.20;;;0.30;99.90;;;;;;5074789;28;20163;-63
2021/01/27 01:25:07;;;;;;;6.95;4.47;;;0.30;99.90;;;;;;5074685;28;20542;-64
2021/01/27 01:27:32;;;;;;;6.13;5.53;;;0.20;99.90;;;;;;5074584;28;20168;-64
2021/01/27 01:29:58;;;;;;;6.17;5.07;;;0.30;99.90;;;;;;5074400;28;20670;-64
2021/01/27 01:32:23;;;;;;;10.43;6.37;;;0.30;99.90;;;;;;5074518;28;20187;-64
2021/01/27 01:34:49;;;;;;;7.47;5.63;;;0.30;99.90;;;;;;5074518;28;20421;-64
2021/01/27 01:37:14;;;;;;;5.20;4.80;;;0.30;99.90;;;;;;5074431;28;20513;-64
2021/01/27 01:39:40;;;;;;;6.87;5.80;;;0.20;99.90;;;;;;5073983;28;20187;-64
2021/01/27 01:42:06;;;;;;;8.60;5.30;;;0.20;99.90;;;;;;5074233;28;20258;-64
2021/01/27 01:44:31;;;;;;;6.10;5.43;;;0.20;99.90;;;;;;5074400;28;20635;-62
2021/01/27 01:46:57;;;;;;;5.90;5.40;;;0.10;99.90;;;;;;5074310;28;20163;-64
2021/01/27 01:49:23;;;;;;;6.53;5.77;;;0.10;99.90;;;;;;5074181;28;20163;-64
2021/01/27 01:51:55;;;;;;;6.70;5.03;;;0.10;99.90;;;;;;5073825;28;20187;-64
2021/01/27 01:54:43;;;;;;;6.95;6.13;;;0.10;99.90;;;;;;5074038;28;20413;-64
2021/01/27 01:57:16;;;;;;;6.70;5.18;;;0.10;99.90;;;;;;5073954;28;20178;-64
2021/01/27 01:59:51;;;;;;;6.30;5.80;;;0.10;99.90;;;;;;5073587;28;20194;-64
2021/01/27 02:02:17;;;;;;;4.93;4.53;;;0.10;99.90;;;;;;5074066;28;20205;-64
2021/01/27 02:04:54;;;;;;;5.60;5.20;;;0.10;99.90;;;;;;5073921;28;20695;-64
2021/01/27 02:07:21;;;;;;;4.57;4.25;;;0.10;99.90;;;;;;5073672;28;20401;-64
2021/01/27 02:09:46;;;;;;;5.13;4.57;;;0.10;99.90;;;;;;5073398;28;20175;-64
2021/01/27 02:12:30;;;;;;;4.10;3.90;;;0.10;99.90;;;;;;5073733;28;20725;-64
2021/01/27 02:15:02;;;;;;;5.80;4.15;;;0.10;99.90;;;;;;5073756;28;20250;-64
2021/01/27 02:17:54;;;;;;;3.60;3.30;;;0.10;99.90;;;;;;5073687;28;20643;-64
2021/01/27 02:20:44;;;;;;;3.58;3.28;;;0.10;99.90;;;;;;5073335;28;20207;-64
2021/01/27 02:23:21;;;;;;;3.90;3.58;;;0.10;99.90;;;;;;5073616;28;20260;-65
2021/01/27 02:26:01;;;;;;;4.00;3.70;;;0.10;99.90;;;;;;5073522;28;20260;-64
2021/01/27 02:29:04;;;;;;;4.00;3.70;;;0.10;99.90;;;;;;5073512;28;20631;-64
2021/01/27 02:31:55;;;;;;;3.90;3.60;;;0.20;99.90;;;;;;5072994;28;20281;-61
2021/01/27 02:34:39;;;;;;;3.03;2.92;;;0.10;99.90;;;;;;5073448;28;20572;-64
2021/01/27 02:37:09;;;;;;;3.65;3.35;;;0.10;99.90;;;;;;5073315;28;20189;-64
2021/01/27 02:39:42;;;;;;;4.72;3.20;;;0.10;99.90;;;;;;5072898;28;20206;-64
2021/01/27 02:42:22;;;;;;;2.40;2.25;;;0.20;99.90;;;;;;5073206;28;20175;-64
2021/01/27 02:45:06;;;;;;;2.92;2.72;;;0.20;99.90;;;;;;5073292;28;20159;-63
2021/01/27 02:48:04;;;;;;;4.60;2.90;;;0.20;99.90;;;;;;5073132;28;20167;-64
2021/01/27 02:50:43;;;;;;;3.50;3.20;;;0.20;99.90;;;;;;5072287;28;20217;-62
2021/01/27 02:53:19;;;;;;;3.10;2.90;;;0.20;99.90;;;;;;5073126;28;20171;-64
2021/01/27 02:56:00;;;;;;;3.13;2.92;;;0.20;99.90;;;;;;5072954;28;20171;-64
2021/01/27 02:59:07;;;;;;;2.75;2.65;;;0.20;99.90;;;;;;5072769;28;20283;-64
2021/01/27 03:01:43;;;;;;;2.85;2.65;;;0.20;99.90;;;;;;5072274;28;20246;-64
2021/01/27 03:04:16;;;;;;;4.35;3.28;;;0.20;99.90;;;;;;5072890;28;20173;-64
2021/01/27 03:06:43;;;;;;;3.38;3.13;;;0.20;99.90;;;;;;5072767;28;20658;-64
2021/01/27 03:09:21;;;;;;;3.63;3.35;;;0.20;99.90;;;;;;5072514;28;20170;-64
2021/01/27 03:11:48;;;;;;;2.88;2.67;;;0.20;99.90;;;;;;5072303;28;20655;-64
2021/01/27 03:14:14;;;;;;;2.83;2.65;;;0.20;99.90;;;;;;5072567;28;20175;-64
2021/01/27 03:16:53;;;;;;;3.30;3.00;;;0.20;99.90;;;;;;5072545;28;20171;-64
2021/01/27 03:19:31;;;;;;;2.60;2.50;;;0.20;99.90;;;;;;5071934;28;20698;-64
2021/01/27 03:22:01;;;;;;;3.15;3.05;;;0.20;99.90;;;;;;5072165;28;20261;-64
2021/01/27 03:24:32;;;;;;;3.90;3.60;;;0.20;99.90;;;;;;5072482;28;20171;-64
2021/01/27 03:27:13;;;;;;;3.00;2.90;;;0.20;99.90;;;;;;5072498;28;20170;-63
2021/01/27 03:29:48;;;;;;;2.97;2.88;;;0.10;99.90;;;;;;5071913;28;20194;-64
2021/01/27 03:32:20;;;;;;;2.92;2.72;;;0.10;99.90;;;;;;5072323;28;20187;-63
2021/01/27 03:34:51;;;;;;;2.92;2.72;;;0.10;99.90;;;;;;5072316;28;20172;-64
2021/01/27 03:37:41;;;;;;;2.95;2.75;;;0.20;99.90;;;;;;5072866;28;20175;-63
2021/01/27 03:40:11;;;;;;;2.08;2.08;;;0.20;99.90;;;;;;5071807;28;20311;-63
2021/01/27 03:42:50;;;;;;;2.85;2.65;;;0.20;99.90;;;;;;5072092;28;20174;-64
2021/01/27 03:45:19;;;;;;;2.33;2.22;;;0.20;99.90;;;;;;5072141;28;20166;-64
2021/01/27 03:48:12;;;;;;;2.90;2.70;;;0.20;99.90;;;;;;5071981;28;20197;-63
2021/01/27 03:50:40;;;;;;;2.10;2.00;;;0.20;99.90;;;;;;5071732;28;20667;-63
2021/01/27 03:53:12;;;;;;;2.22;2.13;;;0.20;99.90;;;;;;5071950;28;20618;-63
2021/01/27 03:55:56;;;;;;;2.55;2.42;;;0.20;99.90;;;;;;5072056;28;20167;-63
2021/01/27 03:58:31;;;;;;;1.85;1.75;;;0.20;99.90;;;;;;5071736;28;20256;-63
2021/01/27 04:01:21;;;;;;;2.42;2.22;;;0.30;99.90;;;;;;5071610;28;20183;-63
2021/01/27 04:03:50;;;;;;;2.13;2.03;;;0.20;99.90;;;;;;5071344;28;20191;-63
2021/01/27 04:06:16;;;;;;;2.58;2.38;;;0.20;99.90;;;;;;5072012;28;20564;-63
2021/01/27 04:08:41;;;;;;;2.27;2.17;;;0.30;99.90;;;;;;5071746;28;20175;-63
2021/01/27 04:11:07;;;;;;;2.10;2.00;;;0.30;99.90;;;;;;5071512;28;20218;-64
2021/01/27 04:13:34;;;;;;;2.03;1.83;;;0.20;99.90;;;;;;5071829;28;20631;-64
2021/01/27 04:15:59;;;;;;;2.83;2.63;;;0.20;99.90;;;;;;5071775;28;20179;-63
2021/01/27 04:18:26;;;;;;;2.37;2.27;;;0.30;99.90;;;;;;5071619;28;20202;-64
2021/01/27 04:20:52;;;;;;;2.10;2.00;;;0.30;99.90;;;;;;5071418;28;20421;-64
2021/01/27 04:23:18;;;;;;;2.17;2.07;;;0.30;99.90;;;;;;5071690;28;20193;-65
2021/01/27 04:25:43;;;;;;;1.80;1.70;;;0.40;99.90;;;;;;5071707;28;20163;-64
2021/01/27 04:28:10;;;;;;;2.10;2.00;;;0.30;99.90;;;;;;5071699;28;20769;-64
2021/01/27 04:30:36;;;;;;;2.08;1.98;;;0.40;99.90;;;;;;5071554;28;20424;-64
2021/01/27 04:33:04;;;;;;;1.77;1.67;;;0.40;99.90;;;;;;5075748;28;20167;-63
2021/01/27 04:35:31;;;;;;;1.63;1.52;;;0.40;99.90;;;;;;5075716;28;20212;-64
2021/01/27 04:37:57;;;;;;;1.92;1.83;;;0.40;99.90;;;;;;5075536;28;20167;-63
2021/01/27 04:40:30;;;;;;;2.13;2.03;;;0.40;99.90;;;;;;5075118;28;20211;-63
2021/01/27 04:42:56;;;;;;;1.70;1.60;;;0.40;99.90;;;;;;5075452;28;20413;-64
2021/01/27 04:45:22;;;;;;;1.73;1.67;;;0.40;99.90;;;;;;5075386;28;20272;-63
2021/01/27 04:48:00;;;;;;;2.00;1.87;;;0.40;99.90;;;;;;5075433;28;20429;-63
2021/01/27 04:50:51;;;;;;;1.67;1.67;;;0.40;99.90;;;;;;5075011;28;20500;-63
2021/01/27 04:53:43;;;;;;;2.50;2.30;;;0.40;99.90;;;;;;5075419;28;20763;-63
2021/01/27 04:56:26;;;;;;;1.75;1.65;;;0.40;99.90;;;;;;5075735;28;20547;-63
2021/01/27 04:59:24;;;;;;;1.98;1.88;;;0.30;99.90;;;;;;5075031;28;20296;-64
2021/01/27 05:02:09;;;;;;;2.15;2.05;;;0.40;99.90;;;;;;5074693;28;20679;-63
2021/01/27 05:05:01;;;;;;;2.03;1.92;;;0.30;99.90;;;;;;5074406;28;20185;-63
2021/01/27 05:07:53;;;;;;;1.83;1.73;;;0.40;99.90;;;;;;5075075;28;20550;-63
2021/01/27 05:10:22;;;;;;;1.90;1.80;;;0.40;99.90;;;;;;5073971;28;20198;-64
2021/01/27 05:13:33;;;;;;;2.10;2.00;;;0.40;99.90;;;;;;5075124;28;20164;-63
2021/01/27 05:16:02;;;;;;;1.75;1.70;;;0.30;99.90;;;;;;5074577;28;20190;-63
2021/01/27 05:18:28;;;;;;;2.00;1.92;;;0.30;99.90;;;;;;5074654;28;20290;-63
2021/01/27 05:20:54;;;;;;;1.97;1.87;;;0.30;99.90;;;;;;5074328;28;20271;-64
2021/01/27 05:23:20;;;;;;;2.60;2.40;;;0.30;99.90;;;;;;5074763;28;20778;-64
2021/01/27 05:26:00;;;;;;;1.43;1.43;;;0.30;99.90;;;;;;5074728;28;20203;-64
2021/01/27 05:28:31;;;;;;;2.75;2.22;;;0.30;99.90;;;;;;5074680;28;20929;-64
2021/01/27 05:30:57;;;;;;;2.08;1.98;;;0.30;99.90;;;;;;5074257;28;20274;-63
2021/01/27 05:33:44;;;;;;;2.23;2.13;;;0.30;99.90;;;;;;5074512;28;20191;-63
2021/01/27 05:36:20;;;;;;;1.52;1.45;;;0.30;99.90;;;;;;5074494;28;20163;-64
2021/01/27 05:38:46;;;;;;;2.10;2.00;;;0.40;99.90;;;;;;5074346;28;20190;-64
2021/01/27 05:41:34;;;;;;;1.73;1.60;;;0.40;99.90;;;;;;5074091;28;20251;-64
2021/01/27 05:44:09;;;;;;;1.63;1.52;;;0.30;99.90;;;;;;5073364;28;20183;-63
2021/01/27 05:46:37;;;;;;;1.50;1.50;;;0.30;99.90;;;;;;5074383;28;20242;-64
2021/01/27 05:49:10;;;;;;;2.30;2.00;;;0.30;99.90;;;;;;5074306;28;20163;-63
2021/01/27 05:51:38;;;;;;;1.77;1.67;;;0.40;99.90;;;;;;5073879;28;20191;-64
2021/01/27 05:54:38;;;;;;;2.15;2.15;;;0.40;99.90;;;;;;5074130;28;20209;-63
2021/01/27 05:57:16;;;;;;;1.50;1.50;;;0.40;99.90;;;;;;5071707;28;20182;-67
2021/01/27 05:59:43;;;;;;;1.35;1.35;;;0.40;99.90;;;;;;5073348;28;20206;-64
2021/01/27 06:02:09;;;;;;;1.40;1.35;;;0.40;99.90;;;;;;5074087;28;20190;-64
2021/01/27 06:04:38;;;;;;;1.17;1.17;;;0.40;99.90;;;;;;5073933;28;20171;-64
2021/01/27 06:07:08;;;;;;;1.58;1.48;;;0.50;99.90;;;;;;5074009;28;20246;-64
2021/01/27 06:09:43;;;;;;;1.60;1.50;;;0.40;99.90;;;;;;5073675;28;20171;-64
2021/01/27 06:12:33;;;;;;;2.17;2.08;;;0.40;99.90;;;;;;5073855;28;20682;-64
2021/01/27 06:15:04;;;;;;;1.40;1.40;;;0.50;99.90;;;;;;5073615;28;20195;-64
2021/01/27 06:17:39;;;;;;;1.15;1.13;;;0.50;99.90;;;;;;5073754;28;20230;-64
2021/01/27 06:20:13;;;;;;;1.60;1.50;;;0.60;99.90;;;;;;5073273;28;20277;-64
2021/01/27 06:23:07;;;;;;;1.60;1.50;;;0.50;99.90;;;;;;5073728;28;20220;-64
2021/01/27 06:26:03;;;;;;;1.80;1.70;;;0.50;99.90;;;;;;5073608;28;20173;-64
2021/01/27 06:28:50;;;;;;;1.60;1.50;;;0.50;99.90;;;;;;5073515;28;20182;-64
2021/01/27 06:31:21;;;;;;;1.50;1.50;;;0.50;99.90;;;;;;5073155;28;20277;-63
2021/01/27 06:34:33;;;;;;;1.75;1.70;;;0.50;99.90;;;;;;5073428;28;20189;-63
2021/01/27 06:37:17;;;;;;;1.40;1.30;;;0.50;99.90;;;;;;5072491;28;20183;-63
2021/01/27 06:40:10;;;;;;;1.67;1.50;;;0.50;99.90;;;;;;5072831;28;20728;-64
2021/01/27 06:42:56;;;;;;;1.40;1.40;;;0.50;99.90;;;;;;5073346;28;20170;-64
2021/01/27 06:45:28;;;;;;;1.52;1.42;;;0.50;99.90;;;;;;5073258;28;20238;-64
2021/01/27 06:48:02;;;;;;;1.63;1.52;;;0.60;99.90;;;;;;5073115;28;20163;-64
2021/01/27 06:50:38;;;;;;;1.48;1.40;;;0.50;99.90;;;;;;5072679;28;20591;-64
2021/01/27 06:53:23;;;;;;;1.85;1.75;;;0.60;99.90;;;;;;5073075;28;20194;-64
2021/01/27 06:56:10;;;;;;;1.70;1.60;;;0.60;99.90;;;;;;5072957;28;20171;-64
2021/01/27 06:58:41;;;;;;;1.63;1.52;;;0.60;99.90;;;;;;5072702;28;20213;-64
2021/01/27 07:01:44;;;;;;;1.63;1.60;;;0.60;99.90;;;;;;5072567;28;20281;-64
2021/01/27 07:04:13;;;;;;;1.95;1.65;;;0.60;99.90;;;;;;5071264;28;20170;-62
2021/01/27 07:07:16;;;;;;;1.85;1.75;;;0.60;99.90;;;;;;5072611;28;20667;-63
2021/01/27 07:09:51;;;;;;;1.95;1.85;;;0.60;99.90;;;;;;5070007;28;20249;-62
2021/01/27 07:12:46;;;;;;;1.70;1.60;;;0.70;99.90;;;;;;5072125;28;20186;-63
2021/01/27 07:15:40;;;;;;;1.67;1.58;;;0.70;99.90;;;;;;5665346;22;20755;-67
2021/01/27 07:18:28;;;;;;;1.20;1.20;;;0.70;99.90;;;;;;5031586;28;20651;-64
2021/01/27 07:20:59;;;;;;;1.95;1.85;;;0.70;99.90;;;;;;5031677;28;20181;-65
2021/01/27 07:23:51;;;;;;;1.70;1.60;;;0.60;99.90;;;;;;5032119;28;20176;-65
2021/01/27 07:26:53;;;;;;;1.70;1.67;;;0.70;99.90;;;;;;5032657;28;20188;-71
2021/01/27 07:29:21;;;;;;;1.92;1.83;;;0.70;99.90;;;;;;5031865;28;20255;-68
2021/01/27 07:32:02;;;;;;;2.05;1.95;;;0.70;99.90;;;;;;5030632;28;20161;-68
2021/01/27 07:34:44;;;;;;;1.83;1.73;;;0.70;99.90;;;;;;5032018;28;20574;-68
2021/01/27 07:37:21;;;;;;;2.13;1.90;;;0.70;99.90;;;;;;5030546;28;20177;-66
2021/01/27 07:40:07;;;;;;;1.40;1.35;;;0.80;99.90;;;;;;5032028;28;20199;-65
2021/01/27 07:42:42;;;;;;;1.80;1.70;;;0.80;99.90;;;;;;5031463;28;20548;-64
2021/01/27 07:45:18;;;;;;;1.75;1.65;;;0.80;99.90;;;;;;5031528;28;20231;-69
2021/01/27 07:48:03;;;;;;;1.77;1.67;;;0.80;99.90;;;;;;5032064;28;20251;-63
2021/01/27 07:50:30;;;;;;;1.95;1.83;;;0.80;99.90;;;;;;5031842;28;20172;-63
2021/01/27 07:53:02;;;;;;;2.08;1.98;;;0.80;99.90;;;;;;5067241;23;20246;-66
2021/01/27 07:55:40;;;;;;;2.97;1.80;;;0.90;99.90;;;;;;5031684;28;20592;-66
2021/01/27 07:58:32;;;;;;;2.50;2.35;;;0.80;99.90;;;;;;5030787;28;20168;-66
2021/01/27 08:01:13;;;;;;;1.70;1.60;;;0.90;99.90;;;;;;5030427;28;20659;-66
2021/01/27 08:03:58;;;;;;;1.33;1.23;;;0.90;99.90;;;;;;5031939;28;20238;-66
2021/01/27 08:06:27;;;;;;;1.90;1.40;;;1.00;99.90;;;;;;5031150;28;20176;-66
2021/01/27 08:08:57;;;;;;;3.20;1.90;;;1.00;99.90;;;;;;5031483;28;20580;-66
2021/01/27 08:11:29;;;;;;;1.90;1.80;;;1.00;99.90;;;;;;5031712;28;20307;-66
2021/01/27 08:13:55;;;;;;;1.58;1.48;;;1.00;99.90;;;;;;5031693;28;20675;-66
2021/01/27 08:16:35;;;;;;;1.60;1.50;;;1.00;99.90;;;;;;5031466;28;20174;-66
2021/01/27 08:19:12;;;;;;;2.00;1.90;;;1.10;99.90;;;;;;5031531;28;20221;-66
2021/01/27 08:21:55;;;;;;;1.60;1.50;;;1.10;99.90;;;;;;5031242;28;20165;-67
2021/01/27 08:24:38;;;;;;;1.50;1.50;;;1.10;99.90;;;;;;5030301;28;20700;-66
2021/01/27 08:27:10;;;;;;;1.45;1.35;;;1.10;99.90;;;;;;5031678;28;20618;-66
2021/01/27 08:29:39;;;;;;;1.10;1.10;;;1.10;99.90;;;;;;5031609;28;20257;-66
2021/01/27 08:32:36;;;;;;;1.45;1.35;;;1.20;99.90;;;;;;5031417;28;20624;-66
2021/01/27 08:35:36;;;;;;;1.10;1.08;;;1.20;99.90;;;;;;5031344;28;20190;-66
2021/01/27 08:38:24;;;;;;;1.10;1.10;;;1.30;99.90;;;;;;5031386;28;20625;-66
2021/01/27 08:40:49;;;;;;;1.40;1.30;;;1.30;99.90;;;;;;5031602;28;20185;-66
2021/01/27 08:43:17;;;;;;;1.37;1.37;;;1.30;99.90;;;;;;5031401;28;20653;-66
2021/01/27 08:45:46;;;;;;;1.20;1.20;;;1.40;99.90;;;;;;5031306;28;20164;-66
2021/01/27 08:48:14;;;;;;;1.05;1.05;;;1.30;99.90;;;;;;5031290;28;20169;-66
2021/01/27 08:50:52;;;;;;;1.50;1.40;;;1.40;99.90;;;;;;5031418;28;20160;-66
2021/01/27 08:53:20;;;;;;;1.02;1.02;;;1.50;99.90;;;;;;5031253;28;20655;-66
2021/01/27 08:55:46;;;;;;;1.10;1.10;;;1.50;99.90;;;;;;5031175;28;20229;-66
2021/01/27 08:58:37;;;;;;;1.43;1.33;;;1.50;99.90;;;;;;5030032;28;20171;-66
2021/01/27 09:01:31;;;;;;;1.10;1.10;;;1.50;99.90;;;;;;5031450;28;20604;-66
2021/01/27 09:03:59;;;;;;;1.30;1.30;;;1.60;99.90;;;;;;5031051;28;20194;-66
2021/01/27 09:06:45;;;;;;;1.10;1.10;;;1.50;99.90;;;;;;5031000;28;20512;-66
2021/01/27 09:09:19;;;;;;;1.60;1.50;;;1.60;99.90;;;;;;5031062;28;20244;-66
2021/01/27 09:11:44;;;;;;;1.15;1.15;;;1.50;99.90;;;;;;5031179;28;20175;-66
2021/01/27 09:14:15;;;;;;;0.90;0.90;;;1.60;99.90;;;;;;5031054;28;20622;-66
2021/01/27 09:16:43;;;;;;;1.40;1.30;;;1.50;99.90;;;;;;5030910;28;20270;-66
2021/01/27 09:19:18;;;;;;;1.00;1.00;;;1.50;99.90;;;;;;5033600;28;20199;-66
2021/01/27 09:22:03;;;;;;;1.52;1.45;;;1.60;99.90;;;;;;5034893;28;20178;-66
2021/01/27 09:24:41;;;;;;;1.40;1.30;;;1.60;99.90;;;;;;5034508;28;20714;-66
2021/01/27 09:27:16;;;;;;;1.15;0.98;;;1.70;99.90;;;;;;5034633;28;20169;-66
2021/01/27 09:29:41;;;;;;;1.00;1.00;;;1.90;99.90;;;;;;5034487;28;20255;-66
2021/01/27 09:32:13;;;;;;;0.80;0.80;;;2.00;99.90;;;;;;5034703;28;20210;-66
2021/01/27 09:34:39;;;;;;;0.83;0.83;;;2.10;99.90;;;;;;5034008;28;20178;-66
2021/01/27 09:37:17;;;;;;;0.90;0.90;;;2.00;99.90;;;;;;5034464;28;20499;-66
2021/01/27 09:39:54;;;;;;;0.80;0.80;;;2.10;99.90;;;;;;5034415;28;20259;-66
2021/01/27 09:42:27;;;;;;;0.88;0.88;;;2.10;99.90;;;;;;5034110;28;20542;-67
2021/01/27 09:45:03;;;;;;;0.77;0.77;;;2.00;99.90;;;;;;5034026;28;20188;-66
2021/01/27 09:47:30;;;;;;;1.13;1.13;;;2.00;99.90;;;;;;5034033;28;20572;-66
2021/01/27 09:49:58;;;;;;;1.50;1.40;;;2.00;99.90;;;;;;5034134;28;20406;-66
2021/01/27 09:52:26;;;;;;;1.23;1.13;;;1.90;99.90;;;;;;5034007;28;20435;-66
2021/01/27 09:55:08;;;;;;;1.20;1.20;;;1.90;99.90;;;;;;5033544;28;20430;-66
2021/01/27 09:57:35;;;;;;;1.10;1.10;;;2.00;99.90;;;;;;5033780;28;20418;-66
2021/01/27 10:00:04;;;;;;;1.00;1.00;;;1.90;99.90;;;;;;5033893;28;20507;-66
2021/01/27 10:02:32;;;;;;;0.80;0.80;;;1.90;99.90;;;;;;5033584;28;20469;-66
2021/01/27 10:04:58;;;;;;;0.70;0.70;;;2.00;99.90;;;;;;5033665;28;20398;-65
2021/01/27 10:07:35;;;;;;;0.70;0.70;;;2.10;99.90;;;;;;5033757;28;20451;-66
2021/01/27 10:10:15;;;;;;;0.90;0.90;;;2.10;99.90;;;;;;5033729;28;20175;-66
2021/01/27 10:12:42;;;;;;;0.83;0.83;;;2.20;99.90;;;;;;5032677;28;20195;-66
2021/01/27 10:15:30;;;;;;;0.87;0.87;;;2.20;99.90;;;;;;5033077;28;20414;-66
2021/01/27 10:18:22;;;;;;;0.63;0.63;;;2.20;99.90;;;;;;5033405;28;20423;-66
2021/01/27 10:20:48;;;;;;;0.80;0.80;;;2.30;99.90;;;;;;5031005;28;20431;-66
2021/01/27 10:23:33;;;;;;;0.90;0.90;;;2.30;99.90;;;;;;5033457;28;20196;-66
2021/01/27 10:26:37;;;;;;;0.70;0.70;;;2.30;99.90;;;;;;5033297;28;20387;-66
2021/01/27 10:29:26;;;;;;;1.03;1.00;;;2.40;99.90;;;;;;5033220;28;20485;-65
2021/01/27 10:31:56;;;;;;;0.93;0.93;;;2.40;99.90;;;;;;5033523;28;20409;-65
2021/01/27 10:34:35;;;;;;;0.95;0.95;;;2.40;99.90;;;;;;5033262;28;20430;-66
2021/01/27 10:37:01;;;;;;;0.70;0.70;;;2.40;99.90;;;;;;5033077;28;20190;-66
2021/01/27 10:39:31;;;;;;;0.67;0.67;;;2.40;99.90;;;;;;5015489;28;20967;-66
2021/01/27 10:42:09;;;;;;;0.60;0.60;;;2.40;99.90;;;;;;5033164;28;20407;-66
2021/01/27 10:44:37;;;;;;;0.80;0.80;;;2.90;99.90;;;;;;5032973;28;20445;-66
2021/01/27 10:47:13;;;;;;;0.70;0.70;;;2.50;99.90;;;;;;5033224;28;20157;-66
2021/01/27 10:49:47;;;;;;;0.83;0.83;;;2.50;99.90;;;;;;5032949;28;20418;-66
2021/01/27 10:52:32;;;;;;;1.00;1.00;;;2.60;99.90;;;;;;5033142;28;20402;-67
2021/01/27 10:55:01;;;;;;;1.00;1.00;;;2.60;99.90;;;;;;5032365;28;20283;-67
2021/01/27 10:57:27;;;;;;;0.77;0.77;;;2.50;99.90;;;;;;5032784;28;20422;-67
2021/01/27 10:59:53;;;;;;;1.03;1.03;;;2.40;99.90;;;;;;5032745;28;20969;-68
2021/01/27 11:02:19;;;;;;;0.97;0.97;;;2.40;99.90;;;;;;5032794;28;20414;-67
2021/01/27 11:04:45;;;;;;;1.03;1.03;;;2.40;99.90;;;;;;5032640;28;20167;-67
2021/01/27 11:07:12;;;;;;;0.90;0.90;;;2.40;99.90;;;;;;5032746;28;20404;-66
2021/01/27 11:09:38;;;;;;;1.17;1.17;;;2.40;99.90;;;;;;5032655;28;20919;-67
2021/01/27 11:12:04;;;;;;;1.00;0.90;;;2.50;99.90;;;;;;5032756;28;20465;-66
2021/01/27 11:14:30;;;;;;;0.97;0.97;;;2.50;99.90;;;;;;5032469;28;20200;-66
2021/01/27 11:16:55;;;;;;;1.27;1.27;;;2.50;99.90;;;;;;5032284;28;20896;-67
2021/01/27 11:19:21;;;;;;;1.10;1.10;;;2.50;99.90;;;;;;5032520;28;20205;-67
2021/01/27 11:21:46;;;;;;;0.87;0.87;;;2.40;99.90;;;;;;5032665;28;20641;-67
2021/01/27 11:24:12;;;;;;;0.90;0.90;;;2.40;99.90;;;;;;5031974;28;20184;-67
2021/01/27 11:26:37;;;;;;;1.07;1.07;;;2.40;99.90;;;;;;5030627;28;20172;-68
2021/01/27 11:29:04;;;;;;;1.20;1.20;;;2.50;99.90;;;;;;5031112;28;20187;-67
2021/01/27 11:31:30;;;;;;;0.90;0.90;;;2.50;99.90;;;;;;5032440;28;20165;-66
2021/01/27 11:33:56;;;;;;;0.97;0.97;;;2.40;99.90;;;;;;5032231;28;20434;-66
2021/01/27 11:36:22;;;;;;;0.90;0.90;;;2.60;99.90;;;;;;5032096;28;20251;-66
2021/01/27 11:38:49;;;;;;;1.10;1.10;;;2.50;99.90;;;;;;5031971;28;20608;-66
2021/01/27 11:41:16;;;;;;;1.20;1.10;;;2.60;99.90;;;;;;5031585;28;20493;-66
2021/01/27 11:43:43;;;;;;;1.30;1.30;;;2.60;99.90;;;;;;5031885;28;20423;-66
2021/01/27 11:46:13;;;;;;;1.10;1.10;;;2.60;99.90;;;;;;5031903;28;20427;-66
2021/01/27 11:48:39;;;;;;;1.20;1.10;;;2.60;99.90;;;;;;5031995;28;20787;-66
2021/01/27 11:51:06;;;;;;;1.17;1.07;;;2.70;99.90;;;;;;5032147;28;20414;-66
2021/01/27 11:53:31;;;;;;;1.40;1.30;;;2.70;99.90;;;;;;5031808;28;20461;-67
2021/01/27 11:55:57;;;;;;;1.53;1.43;;;2.70;99.90;;;;;;5031732;28;20501;-66
2021/01/27 11:58:24;;;;;;;1.20;1.10;;;2.70;99.90;;;;;;5031615;28;20173;-66
2021/01/27 12:00:51;;;;;;;1.00;1.00;;;2.70;99.90;;;;;;5032132;28;20525;-66
2021/01/27 12:03:16;;;;;;;1.20;1.20;;;2.70;99.90;;;;;;5031903;28;20496;-66
2021/01/27 12:05:44;;;;;;;0.90;0.90;;;2.70;99.90;;;;;;5031620;28;20414;-66
2021/01/27 12:08:09;;;;;;;1.33;1.23;;;2.60;99.90;;;;;;5031784;28;20168;-66
2021/01/27 12:10:35;;;;;;;1.33;1.23;;;2.70;99.90;;;;;;5031802;28;20421;-66
2021/01/27 12:13:00;;;;;;;0.83;0.83;;;2.70;99.90;;;;;;5031753;28;20192;-66
2021/01/27 12:15:26;;;;;;;1.10;1.10;;;2.70;99.90;;;;;;5031525;28;20194;-66
2021/01/27 12:17:52;;;;;;;1.13;1.13;;;2.90;99.90;;;;;;5031790;28;20192;-66
2021/01/27 12:20:19;;;;;;;1.07;1.07;;;2.80;99.90;;;;;;5031572;28;20193;-67
2021/01/27 12:22:45;;;;;;;1.43;1.33;;;2.80;99.90;;;;;;5031751;28;20184;-67
2021/01/27 12:25:11;;;;;;;0.90;0.90;;;2.80;99.90;;;;;;5031292;28;20396;-67
2021/01/27 12:27:37;;;;;;;1.50;1.40;;;2.90;99.90;;;;;;5031560;28;20403;-67
2021/01/27 12:30:06;;;;;;;2.90;1.30;;;2.90;99.90;;;;;;5031500;28;20899;-66
2021/01/27 12:32:31;;;;;;;1.60;1.50;;;3.00;99.90;;;;;;5031484;28;20175;-66
2021/01/27 12:34:57;;;;;;;1.50;1.43;;;3.00;99.90;;;;;;5031218;28;20407;-66
2021/01/27 12:37:23;;;;;;;1.23;1.17;;;3.00;99.90;;;;;;5031628;28;20180;-66
2021/01/27 12:39:48;;;;;;;1.80;1.70;;;3.00;99.90;;;;;;5031520;28;20282;-66
2021/01/27 12:42:14;;;;;;;1.30;1.30;;;2.90;99.90;;;;;;5031450;28;20165;-66
2021/01/27 12:44:41;;;;;;;1.20;1.20;;;2.90;99.90;;;;;;5031199;28;20196;-66
2021/01/27 12:47:07;;;;;;;1.10;1.07;;;3.00;99.90;;;;;;5031474;28;20629;-66
2021/01/27 12:49:33;;;;;;;1.20;1.10;;;2.90;99.90;;;;;;5031479;28;20477;-66
2021/01/27 12:51:59;;;;;;;1.60;1.50;;;3.00;99.90;;;;;;5032337;28;20267;-66
2021/01/27 12:54:25;;;;;;;1.43;1.33;;;2.90;99.90;;;;;;5035115;28;21006;-66
2021/01/27 12:56:50;;;;;;;1.50;1.50;;;2.80;99.90;;;;;;5034876;28;20407;-66
2021/01/27 12:59:16;;;;;;;1.23;1.13;;;2.80;99.90;;;;;;5035167;28;20238;-66
2021/01/27 13:01:42;;;;;;;1.33;1.33;;;2.80;99.90;;;;;;5035211;28;20215;-67
2021/01/27 13:04:08;;;;;;;1.27;1.27;;;2.80;99.90;;;;;;5035154;28;20534;-66
2021/01/27 13:06:34;;;;;;;1.50;1.40;;;2.80;99.90;;;;;;5034751;28;20414;-66
2021/01/27 13:08:59;;;;;;;2.47;2.27;;;2.90;99.90;;;;;;5034988;28;20208;-67
2021/01/27 13:11:25;;;;;;;1.73;1.67;;;2.90;99.90;;;;;;5034942;28;20204;-66
2021/01/27 13:13:50;;;;;;;1.50;1.40;;;2.90;99.90;;;;;;5035087;28;20678;-67
2021/01/27 13:16:16;;;;;;;1.60;1.50;;;3.00;99.90;;;;;;5034514;28;20641;-66
2021/01/27 13:18:41;;;;;;;1.50;1.40;;;3.00;99.90;;;;;;5034886;28;20196;-67
2021/01/27 13:21:08;;;;;;;1.33;1.23;;;3.00;99.90;;;;;;5034743;28;20165;-67
2021/01/27 13:23:37;;;;;;;1.63;1.50;;;3.00;99.90;;;;;;5034769;28;20193;-66
2021/01/27 13:26:04;;;;;;;1.50;1.40;;;3.00;99.90;;;;;;5034349;28;20401;-66
2021/01/27 13:28:29;;;;;;;1.50;1.40;;;3.00;99.90;;;;;;5034695;28;20451;-66
2021/01/27 13:30:55;;;;;;;1.80;1.70;;;2.90;99.90;;;;;;5034657;28;20829;-67